Time;durP1;ratioP1;P1;durP2;ratioP2;P2;SDS_P1;SDS_P2;PMS_P1;PMS_P2;Temp;Humidity;BMP_temperature;BMP_pressure;BME280_temperature;BME280_humidity;BME280_pressure;Samples;Min_cycle;Max_cycle;Signal;HPM_P1;HPM_P2
2022/09/05 00:01:05;;;;;;;3.13;2.15;;;19.40;98.70;;;;;;5124935;27;20402;-78
2022/09/05 00:03:43;;;;;;;6.90;2.50;;;19.40;99.00;;;;;;5155471;27;20054;-78
2022/09/05 00:06:11;;;;;;;4.57;2.47;;;19.40;98.80;;;;;;5156098;27;20047;-78
2022/09/05 00:08:51;;;;;;;7.07;2.65;;;19.40;98.90;;;;;;5156053;27;20038;-78
2022/09/05 00:11:41;;;;;;;4.22;2.70;;;19.30;99.10;;;;;;5156043;27;20539;-78
2022/09/05 00:14:18;;;;;;;4.28;2.50;;;19.30;99.10;;;;;;5155935;27;20046;-78
2022/09/05 00:17:05;;;;;;;4.88;2.50;;;19.20;99.10;;;;;;5155978;27;20046;-77
2022/09/05 00:19:52;;;;;;;8.13;2.80;;;19.20;99.30;;;;;;5156236;27;20050;-77
2022/09/05 00:22:36;;;;;;;3.77;2.57;;;19.20;99.30;;;;;;5138369;27;20053;-78
2022/09/05 00:25:23;;;;;;;4.88;2.50;;;19.20;99.30;;;;;;5137528;27;20071;-78
2022/09/05 00:28:01;;;;;;;4.63;2.30;;;19.10;99.40;;;;;;5138550;27;20053;-78
2022/09/05 00:30:30;;;;;;;;;;;19.10;99.50;;;;;;5137806;27;20121;-78
2022/09/05 00:33:26;;;;;;;4.03;2.33;;;19.00;99.90;;;;;;5155591;27;19919;-79
2022/09/05 00:36:21;;;;;;;5.47;2.53;;;19.00;99.90;;;;;;5156114;27;20043;-78
2022/09/05 00:39:00;;;;;;;4.65;2.90;;;19.00;99.90;;;;;;5112156;27;20054;-78
2022/09/05 00:41:26;;;;;;;4.90;2.67;;;18.90;99.90;;;;;;5155333;27;20058;-78
2022/09/05 00:43:52;;;;;;;7.63;2.72;;;18.90;99.90;;;;;;5119746;27;20049;-79
2022/09/05 00:46:32;;;;;;;4.07;2.42;;;18.80;99.90;;;;;;5155490;27;20508;-78
2022/09/05 00:49:37;;;;;;;4.00;2.60;;;18.90;99.90;;;;;;5137943;27;20089;-78
2022/09/05 00:52:13;;;;;;;3.65;2.50;;;18.90;99.90;;;;;;5154127;27;20570;-78
2022/09/05 00:55:04;;;;;;;3.75;2.63;;;18.80;99.90;;;;;;5155482;27;20049;-78
2022/09/05 00:57:52;;;;;;;5.15;3.00;;;18.80;99.90;;;;;;5155406;27;20043;-78
2022/09/05 01:00:50;;;;;;;5.40;2.50;;;18.70;99.90;;;;;;5155566;27;20085;-78
2022/09/05 01:03:43;;;;;;;5.45;2.55;;;18.70;99.90;;;;;;5137237;27;20042;-79
2022/09/05 01:06:30;;;;;;;4.70;2.78;;;18.70;99.90;;;;;;5155460;27;20050;-78
2022/09/05 01:09:04;;;;;;;5.70;3.00;;;18.70;99.90;;;;;;5155169;27;20401;-78
2022/09/05 01:11:52;;;;;;;5.05;2.63;;;18.70;99.90;;;;;;5155221;27;20055;-79
2022/09/05 01:14:36;;;;;;;3.50;2.60;;;18.60;99.90;;;;;;5155495;27;20114;-78
2022/09/05 01:17:39;;;;;;;7.20;2.90;;;18.60;99.90;;;;;;5159375;27;20284;-78
2022/09/05 01:20:27;;;;;;;3.90;3.00;;;18.60;99.90;;;;;;5159382;27;20069;-78
2022/09/05 01:23:11;;;;;;;4.28;3.10;;;18.60;99.90;;;;;;5159501;27;20075;-78
2022/09/05 01:26:06;;;;;;;5.60;2.75;;;18.50;99.90;;;;;;5159214;27;20509;-78
2022/09/05 01:29:17;;;;;;;8.80;3.58;;;18.50;99.90;;;;;;5159673;27;20459;-78
2022/09/05 01:32:08;;;;;;;7.65;3.45;;;18.50;99.90;;;;;;5158600;27;20125;-78
2022/09/05 01:35:08;;;;;;;3.67;2.90;;;18.50;99.90;;;;;;5159491;27;20099;-78
2022/09/05 01:38:07;;;;;;;5.72;3.17;;;18.50;99.90;;;;;;5159237;27;20047;-79
2022/09/05 01:40:48;;;;;;;4.50;2.75;;;18.50;99.90;;;;;;5153474;27;20043;-78
2022/09/05 01:43:24;;;;;;;6.72;3.38;;;18.40;99.90;;;;;;5159184;27;20051;-78
2022/09/05 01:46:11;;;;;;;6.75;3.28;;;18.40;99.90;;;;;;5140452;27;20051;-78
2022/09/05 01:49:08;;;;;;;4.82;3.10;;;18.40;99.90;;;;;;5158755;27;20039;-78
2022/09/05 01:52:05;;;;;;;4.50;3.40;;;18.40;99.90;;;;;;5158762;27;20047;-78
2022/09/05 01:54:33;;;;;;;5.75;3.25;;;18.30;99.90;;;;;;5140524;27;20106;-78
2022/09/05 01:57:26;;;;;;;4.63;3.45;;;18.30;99.90;;;;;;5158344;27;20042;-78
2022/09/05 02:00:06;;;;;;;6.07;3.40;;;18.30;99.90;;;;;;5158890;27;20046;-78
2022/09/05 02:02:50;;;;;;;5.38;2.92;;;18.20;99.90;;;;;;5158675;27;20140;-78
2022/09/05 02:05:54;;;;;;;4.95;3.30;;;18.20;99.90;;;;;;5140009;27;20038;-78
2022/09/05 02:08:55;;;;;;;6.22;3.30;;;18.20;99.90;;;;;;5158581;27;20482;-78
2022/09/05 02:11:38;;;;;;;5.13;3.03;;;18.20;99.90;;;;;;5103382;27;20532;-77
2022/09/05 02:14:42;;;;;;;5.82;3.38;;;18.10;99.90;;;;;;5158316;27;20474;-77
2022/09/05 02:17:19;;;;;;;5.65;3.42;;;18.10;99.90;;;;;;5139962;27;20371;-77
2022/09/05 02:19:50;;;;;;;5.80;3.30;;;18.10;99.90;;;;;;5158141;27;20046;-77
2022/09/05 02:22:31;;;;;;;5.93;3.45;;;18.10;99.90;;;;;;5158177;27;20049;-77
2022/09/05 02:25:13;;;;;;;4.13;3.40;;;18.00;99.90;;;;;;5158048;27;20098;-77
2022/09/05 02:27:49;;;;;;;6.30;3.20;;;18.00;99.90;;;;;;5156801;27;20513;-78
2022/09/05 02:30:23;;;;;;;5.25;3.13;;;18.00;99.90;;;;;;5158957;27;20398;-78
2022/09/05 02:33:16;;;;;;;5.75;3.65;;;18.00;99.90;;;;;;5157993;27;20398;-77
2022/09/05 02:36:02;;;;;;;5.57;3.38;;;17.90;99.90;;;;;;5157956;27;20064;-78
2022/09/05 02:38:45;;;;;;;3.83;3.10;;;17.90;99.90;;;;;;5157971;27;20042;-78
2022/09/05 02:41:35;;;;;;;4.38;3.38;;;17.90;99.90;;;;;;5157828;27;20444;-78
2022/09/05 02:44:31;;;;;;;5.53;3.42;;;17.90;99.90;;;;;;5157936;27;20512;-78
2022/09/05 02:47:14;;;;;;;4.05;3.35;;;17.80;99.90;;;;;;5157802;27;20056;-78
2022/09/05 02:49:59;;;;;;;6.28;3.30;;;17.80;99.90;;;;;;5158144;27;20431;-78
2022/09/05 02:52:29;;;;;;;5.25;3.30;;;17.80;99.90;;;;;;5157582;27;20041;-78
2022/09/05 02:54:57;;;;;;;6.43;3.95;;;17.70;99.90;;;;;;5157491;27;20464;-78
2022/09/05 02:57:43;;;;;;;7.38;3.70;;;17.70;99.90;;;;;;5139133;27;20056;-78
2022/09/05 03:00:17;;;;;;;4.30;3.63;;;17.60;99.90;;;;;;5139874;27;20050;-78
2022/09/05 03:03:18;;;;;;;6.32;3.60;;;17.60;99.90;;;;;;5157342;27;20039;-78
2022/09/05 03:06:03;;;;;;;5.63;3.50;;;17.60;99.90;;;;;;5157454;27;20047;-78
2022/09/05 03:09:01;;;;;;;4.22;3.70;;;17.60;99.90;;;;;;5157237;27;20042;-78
2022/09/05 03:12:10;;;;;;;5.30;4.13;;;17.50;99.90;;;;;;5157324;27;20038;-78
2022/09/05 03:14:45;;;;;;;4.18;3.70;;;17.50;99.90;;;;;;5157478;27;20615;-78
2022/09/05 03:17:16;;;;;;;4.65;3.90;;;17.50;99.90;;;;;;5157475;27;20050;-78
2022/09/05 03:20:05;;;;;;;5.35;3.80;;;17.40;99.90;;;;;;5138270;27;20043;-78
2022/09/05 03:22:52;;;;;;;5.63;3.97;;;17.30;99.90;;;;;;5157035;27;20086;-78
2022/09/05 03:25:42;;;;;;;6.07;3.83;;;17.30;99.90;;;;;;5138546;27;20474;-78
2022/09/05 03:28:59;;;;;;;4.75;3.63;;;17.30;99.90;;;;;;5138367;27;20050;-78
2022/09/05 03:31:47;;;;;;;4.43;3.65;;;17.30;99.90;;;;;;5139242;27;20074;-78
2022/09/05 03:34:51;;;;;;;6.35;3.80;;;17.20;99.90;;;;;;5157493;27;20085;-78
2022/09/05 03:37:41;;;;;;;5.72;3.95;;;17.20;99.90;;;;;;5138338;27;20530;-78
2022/09/05 03:40:35;;;;;;;6.55;3.83;;;17.20;99.90;;;;;;5138431;27;20035;-78
2022/09/05 03:43:29;;;;;;;5.53;3.80;;;17.10;99.90;;;;;;5156337;27;20130;-78
2022/09/05 03:46:31;;;;;;;7.78;4.30;;;17.10;99.90;;;;;;5156572;27;20078;-78
2022/09/05 03:49:15;;;;;;;5.80;4.10;;;17.00;99.90;;;;;;5156476;27;20051;-78
2022/09/05 03:52:08;;;;;;;4.72;3.78;;;17.00;99.90;;;;;;5156535;27;20387;-78
2022/09/05 03:55:05;;;;;;;5.25;4.25;;;17.00;99.90;;;;;;5156794;27;20054;-78
2022/09/05 03:58:02;;;;;;;5.10;4.10;;;16.90;99.90;;;;;;5138278;27;20057;-77
2022/09/05 04:00:34;;;;;;;6.35;4.28;;;16.90;99.90;;;;;;5156170;27;20046;-78
2022/09/05 04:03:17;;;;;;;6.47;4.18;;;16.90;99.90;;;;;;5156169;27;20538;-77
2022/09/05 04:05:47;;;;;;;5.85;4.18;;;16.90;99.90;;;;;;5137947;27;20043;-77
2022/09/05 04:08:38;;;;;;;4.65;4.18;;;16.80;99.90;;;;;;5156125;27;20046;-78
2022/09/05 04:11:30;;;;;;;4.50;3.88;;;16.80;99.90;;;;;;5156054;27;20038;-78
2022/09/05 04:13:59;;;;;;;4.65;4.25;;;16.80;99.90;;;;;;5142575;27;20050;-78
2022/09/05 04:16:32;;;;;;;6.70;4.35;;;16.70;99.90;;;;;;5156055;27;20125;-78
2022/09/05 04:19:14;;;;;;;4.85;4.40;;;16.70;99.90;;;;;;5155945;27;20130;-78
2022/09/05 04:21:55;;;;;;;7.25;4.68;;;16.70;99.90;;;;;;5156224;27;20046;-78
2022/09/05 04:24:35;;;;;;;5.05;4.28;;;16.70;99.90;;;;;;5156063;27;20438;-78
2022/09/05 04:27:23;;;;;;;6.28;4.53;;;16.60;99.90;;;;;;5137682;27;20050;-78
2022/09/05 04:30:01;;;;;;;9.23;4.68;;;16.60;99.90;;;;;;5156200;27;20125;-78
2022/09/05 04:32:38;;;;;;;6.70;4.57;;;16.60;99.90;;;;;;5156837;27;20046;-78
2022/09/05 04:35:13;;;;;;;6.10;4.55;;;16.60;99.90;;;;;;5155931;27;20050;-78
2022/09/05 04:37:44;;;;;;;7.97;5.03;;;16.50;99.90;;;;;;5155600;27;20051;-78
2022/09/05 04:40:47;;;;;;;6.32;4.75;;;16.50;99.90;;;;;;5155540;27;20052;-77
2022/09/05 04:43:33;;;;;;;6.05;4.55;;;16.50;99.90;;;;;;5136740;27;20054;-78
2022/09/05 04:45:59;;;;;;;5.97;4.80;;;16.50;99.90;;;;;;5155479;27;20034;-78
2022/09/05 04:48:35;;;;;;;5.20;4.67;;;16.40;99.90;;;;;;5155367;27;20134;-78
2022/09/05 04:51:45;;;;;;;9.53;5.17;;;16.40;99.90;;;;;;5155574;27;20045;-78
2022/09/05 04:54:46;;;;;;;6.80;4.80;;;16.40;99.90;;;;;;5155595;27;20268;-77
2022/09/05 04:57:30;;;;;;;5.35;4.85;;;16.30;99.90;;;;;;5155183;27;20096;-78
2022/09/05 05:00:11;;;;;;;7.18;5.28;;;16.30;99.90;;;;;;5155367;27;20038;-78
2022/09/05 05:02:41;;;;;;;5.88;5.07;;;16.30;99.90;;;;;;5155082;27;20126;-78
2022/09/05 05:05:15;;;;;;;9.73;5.15;;;16.40;99.90;;;;;;5155511;27;20038;-78
2022/09/05 05:07:44;;;;;;;5.72;4.72;;;16.30;99.90;;;;;;5155801;27;20054;-78
2022/09/05 05:10:20;;;;;;;7.22;5.20;;;16.30;99.90;;;;;;5154931;27;20514;-78
2022/09/05 05:13:01;;;;;;;9.43;5.10;;;16.30;99.90;;;;;;5155483;27;20065;-78
2022/09/05 05:15:28;;;;;;;6.57;5.05;;;16.30;99.90;;;;;;5155141;27;20147;-78
2022/09/05 05:18:17;;;;;;;5.72;5.22;;;16.30;99.90;;;;;;5155177;27;20130;-78
2022/09/05 05:21:11;;;;;;;5.88;4.75;;;16.30;99.90;;;;;;5155177;27;20046;-78
2022/09/05 05:23:44;;;;;;;8.73;5.43;;;16.30;99.90;;;;;;5155103;27;20038;-78
2022/09/05 05:26:19;;;;;;;6.65;5.22;;;16.40;99.90;;;;;;5155117;27;20115;-78
2022/09/05 05:29:06;;;;;;;9.13;5.72;;;16.40;99.90;;;;;;5138259;27;20394;-78
2022/09/05 05:31:53;;;;;;;9.00;5.63;;;16.30;99.90;;;;;;5122598;27;20086;-78
2022/09/05 05:34:35;;;;;;;7.63;5.30;;;16.40;99.90;;;;;;5155317;27;20046;-78
2022/09/05 05:37:14;;;;;;;7.28;5.75;;;16.40;99.90;;;;;;5155012;27;20054;-77
2022/09/05 05:40:15;;;;;;;7.28;5.75;;;16.40;99.90;;;;;;5155145;27;20043;-78
2022/09/05 05:42:42;;;;;;;8.10;5.78;;;16.40;99.90;;;;;;5136162;27;20114;-78
2022/09/05 05:45:30;;;;;;;7.93;5.30;;;16.50;99.90;;;;;;5154860;27;20039;-77
2022/09/05 05:48:04;;;;;;;8.00;5.53;;;16.50;99.90;;;;;;5154810;27;20039;-77
2022/09/05 05:50:51;;;;;;;10.93;5.68;;;16.50;99.90;;;;;;5136517;27;20047;-78
2022/09/05 05:53:23;;;;;;;9.32;5.88;;;16.60;99.90;;;;;;5154883;27;20035;-78
2022/09/05 05:56:12;;;;;;;6.93;5.50;;;16.60;99.90;;;;;;5154782;27;20043;-78
2022/09/05 05:58:44;;;;;;;7.90;5.22;;;16.70;99.90;;;;;;5154933;27;20434;-78
2022/09/05 06:01:30;;;;;;;10.57;5.47;;;16.70;99.90;;;;;;5154659;27;20047;-77
2022/09/05 06:04:53;;;;;;;7.80;5.43;;;16.70;99.90;;;;;;5158939;27;20068;-78
2022/09/05 06:07:52;;;;;;;7.43;5.43;;;16.80;99.90;;;;;;5054385;28;20140;-77
2022/09/05 06:10:33;;;;;;;8.85;5.30;;;16.80;99.90;;;;;;5037504;28;20072;-78
2022/09/05 06:13:13;;;;;;;11.98;6.00;;;16.90;99.90;;;;;;5137141;27;20054;-78
2022/09/05 06:16:10;;;;;;;10.20;5.35;;;17.00;99.90;;;;;;5158549;27;20047;-78
2022/09/05 06:19:13;;;;;;;6.25;5.60;;;17.10;99.90;;;;;;5158191;27;20459;-78
2022/09/05 06:21:57;;;;;;;6.68;5.10;;;17.10;99.90;;;;;;5158166;27;20125;-78
2022/09/05 06:24:40;;;;;;;6.25;5.38;;;17.20;99.90;;;;;;5158068;27;20065;-77
2022/09/05 06:27:31;;;;;;;6.15;5.15;;;17.30;99.90;;;;;;5140505;27;20045;-78
2022/09/05 06:30:21;;;;;;;9.23;5.45;;;17.50;99.90;;;;;;5139580;27;20083;-78
2022/09/05 06:32:46;;;;;;;7.60;6.00;;;17.50;99.90;;;;;;5158127;27;20054;-78
2022/09/05 06:35:36;;;;;;;6.50;5.47;;;17.50;99.90;;;;;;5140597;27;20046;-78
2022/09/05 06:38:32;;;;;;;7.75;5.75;;;17.60;99.90;;;;;;5157916;27;20038;-78
2022/09/05 06:41:06;;;;;;;7.63;5.10;;;17.70;99.90;;;;;;5157750;27;20043;-78
2022/09/05 06:43:35;;;;;;;7.50;5.32;;;17.90;99.90;;;;;;5158079;27;20046;-78
2022/09/05 06:46:03;;;;;;;6.07;5.07;;;18.00;99.90;;;;;;5139538;27;20477;-78
2022/09/05 06:48:56;;;;;;;7.18;5.18;;;18.20;99.90;;;;;;5157544;27;20082;-78
2022/09/05 06:51:36;;;;;;;9.75;5.28;;;18.30;99.90;;;;;;5157870;27;20049;-78
2022/09/05 06:54:21;;;;;;;8.98;5.15;;;18.50;99.90;;;;;;5158015;27;20042;-78
2022/09/05 06:57:24;;;;;;;9.75;5.30;;;18.60;99.90;;;;;;5139265;27;20039;-78
2022/09/05 07:00:05;;;;;;;7.05;5.30;;;18.80;99.90;;;;;;5157453;27;20050;-78
2022/09/05 07:02:39;;;;;;;8.35;5.78;;;19.00;99.90;;;;;;5139046;27;20486;-78
2022/09/05 07:05:29;;;;;;;6.68;5.38;;;19.10;99.90;;;;;;5157551;27;20125;-78
2022/09/05 07:08:04;;;;;;;6.63;5.20;;;19.20;99.90;;;;;;5157377;27;20065;-78
2022/09/05 07:10:40;;;;;;;8.93;5.28;;;19.30;99.90;;;;;;5138898;27;20082;-78
2022/09/05 07:13:18;;;;;;;7.68;4.95;;;19.40;99.90;;;;;;5138389;27;20054;-78
2022/09/05 07:15:49;;;;;;;6.88;5.22;;;19.50;99.90;;;;;;5157184;27;20167;-78
2022/09/05 07:18:46;;;;;;;6.43;5.40;;;19.70;99.90;;;;;;5157186;27;20039;-78
2022/09/05 07:21:23;;;;;;;7.70;5.10;;;19.80;99.90;;;;;;5157086;27;20078;-78
2022/09/05 07:23:56;;;;;;;5.80;4.80;;;20.00;99.90;;;;;;5138579;27;20030;-78
2022/09/05 07:26:23;;;;;;;7.57;5.35;;;20.00;99.90;;;;;;5156983;27;20043;-78
2022/09/05 07:28:55;;;;;;;7.45;5.38;;;20.10;99.90;;;;;;5156965;27;20087;-78
2022/09/05 07:31:25;;;;;;;7.57;5.53;;;20.30;99.90;;;;;;5156944;27;20046;-78
2022/09/05 07:34:20;;;;;;;7.90;4.97;;;20.40;99.90;;;;;;5139169;27;20406;-78
2022/09/05 07:36:47;;;;;;;8.30;5.28;;;20.40;99.90;;;;;;5157066;27;20393;-78
2022/09/05 07:39:18;;;;;;;8.95;5.20;;;20.60;99.90;;;;;;5156701;27;20046;-78
2022/09/05 07:41:52;;;;;;;11.15;5.20;;;20.70;99.90;;;;;;5156675;27;20065;-78
2022/09/05 07:44:32;;;;;;;6.70;4.82;;;20.80;99.90;;;;;;5156817;27;20390;-78
2022/09/05 07:47:24;;;;;;;7.25;4.90;;;20.90;99.90;;;;;;5156928;27;20095;-78
2022/09/05 07:49:52;;;;;;;6.95;5.20;;;21.20;99.90;;;;;;5145142;27;20150;-78
2022/09/05 07:52:20;;;;;;;8.13;4.93;;;21.30;99.90;;;;;;5138215;27;20103;-78
2022/09/05 07:54:51;;;;;;;7.75;5.43;;;21.40;99.90;;;;;;5157138;27;20035;-78
2022/09/05 07:57:31;;;;;;;9.52;5.20;;;21.50;99.90;;;;;;5138587;27;20034;-79
2022/09/05 08:00:06;;;;;;;7.07;4.30;;;21.60;99.90;;;;;;5156481;27;20046;-78
2022/09/05 08:02:32;;;;;;;7.65;4.85;;;21.60;99.90;;;;;;5137739;27;20043;-78
2022/09/05 08:05:04;;;;;;;5.57;5.00;;;21.80;99.90;;;;;;5156149;27;20075;-78
2022/09/05 08:07:36;;;;;;;6.57;4.70;;;21.90;99.90;;;;;;5156021;27;20046;-78
2022/09/05 08:10:16;;;;;;;6.80;4.53;;;22.00;99.90;;;;;;5156550;27;20085;-78
2022/09/05 08:12:49;;;;;;;9.25;4.35;;;22.20;99.90;;;;;;5156074;27;20045;-78
2022/09/05 08:15:25;;;;;;;8.27;4.88;;;22.30;99.90;;;;;;5156045;27;20050;-78
2022/09/05 08:18:38;;;;;;;5.63;4.50;;;22.40;99.90;;;;;;5137573;27;20085;-78
2022/09/05 08:21:20;;;;;;;6.75;5.03;;;22.50;99.90;;;;;;5051859;28;20288;-79
2022/09/05 08:24:23;;;;;;;8.85;4.28;;;22.60;99.90;;;;;;5144873;27;20054;-78
2022/09/05 08:27:10;;;;;;;8.70;4.63;;;22.70;99.90;;;;;;5137765;27;20042;-78
2022/09/05 08:29:39;;;;;;;5.93;4.20;;;22.80;99.90;;;;;;5155026;27;20090;-78
2022/09/05 08:32:20;;;;;;;6.63;4.60;;;23.00;99.90;;;;;;5155699;27;20038;-78
2022/09/05 08:35:05;;;;;;;9.55;4.55;;;23.20;99.90;;;;;;5156161;27;20051;-79
2022/09/05 08:37:31;;;;;;;7.93;4.60;;;23.30;99.90;;;;;;5155866;27;20047;-79
2022/09/05 08:40:14;;;;;;;10.23;4.50;;;23.50;99.90;;;;;;5137318;27;20051;-79
2022/09/05 08:43:04;;;;;;;5.28;3.90;;;23.60;99.90;;;;;;5155671;27;20058;-78
2022/09/05 08:45:53;;;;;;;6.90;3.67;;;23.80;99.50;;;;;;5155899;27;20125;-79
2022/09/05 08:48:36;;;;;;;6.68;3.67;;;23.90;99.40;;;;;;5155743;27;20070;-79
2022/09/05 08:51:20;;;;;;;8.23;4.03;;;24.00;99.60;;;;;;5155995;27;20043;-79
2022/09/05 08:54:04;;;;;;;7.78;3.80;;;24.20;98.80;;;;;;5156090;27;20131;-79
2022/09/05 08:56:36;;;;;;;9.10;3.50;;;24.40;98.90;;;;;;5155594;27;20609;-79
2022/09/05 08:59:44;;;;;;;7.22;3.50;;;24.50;98.80;;;;;;5155419;27;20058;-79
2022/09/05 09:02:33;;;;;;;8.75;3.35;;;24.60;98.70;;;;;;5051067;28;20056;-79
2022/09/05 09:05:36;;;;;;;4.70;3.60;;;24.70;98.80;;;;;;5137234;27;20054;-79
2022/09/05 09:08:13;;;;;;;7.22;3.50;;;24.80;98.00;;;;;;5155294;27;20047;-79
2022/09/05 09:10:54;;;;;;;4.25;3.00;;;24.80;98.00;;;;;;5155736;27;20038;-79
2022/09/05 09:13:30;;;;;;;5.03;3.15;;;24.90;98.00;;;;;;5136907;27;20043;-79
2022/09/05 09:15:58;;;;;;;8.57;3.38;;;25.00;98.00;;;;;;5136796;27;20050;-79
2022/09/05 09:18:50;;;;;;;6.72;2.88;;;25.10;98.10;;;;;;5155672;27;20043;-79
2022/09/05 09:21:53;;;;;;;7.95;3.33;;;25.30;98.00;;;;;;5136966;27;20054;-79
2022/09/05 09:24:44;;;;;;;5.07;3.08;;;25.40;97.30;;;;;;5136517;27;20367;-79
2022/09/05 09:27:28;;;;;;;8.23;3.10;;;25.60;96.90;;;;;;5155162;27;20046;-79
2022/09/05 09:30:03;;;;;;;5.20;3.22;;;25.70;96.90;;;;;;5155243;27;20042;-79
2022/09/05 09:32:30;;;;;;;5.80;2.90;;;25.80;96.60;;;;;;5155187;27;20127;-79
2022/09/05 09:35:01;;;;;;;4.60;3.00;;;25.80;96.80;;;;;;5136848;27;20054;-79
2022/09/05 09:38:09;;;;;;;6.65;3.00;;;26.00;96.50;;;;;;5158854;27;20047;-78
2022/09/05 09:41:05;;;;;;;8.48;3.17;;;26.10;95.80;;;;;;5159103;27;20046;-79
2022/09/05 09:43:52;;;;;;;5.50;2.55;;;26.20;96.00;;;;;;5159135;27;20046;-79
2022/09/05 09:46:24;;;;;;;4.47;2.65;;;26.40;96.30;;;;;;5159331;27;20402;-79
2022/09/05 09:49:06;;;;;;;4.18;2.40;;;26.50;96.10;;;;;;5140701;27;20204;-79
2022/09/05 09:51:40;;;;;;;4.75;2.30;;;26.60;95.80;;;;;;5158835;27;20038;-79
2022/09/05 09:54:15;;;;;;;5.72;2.47;;;26.70;95.50;;;;;;5140314;27;20045;-79
2022/09/05 09:56:53;;;;;;;5.00;2.78;;;26.70;95.30;;;;;;5140975;27;20164;-79
2022/09/05 09:59:39;;;;;;;5.10;2.67;;;26.90;94.70;;;;;;5158680;27;20046;-79
2022/09/05 10:02:35;;;;;;;3.83;2.42;;;27.00;95.00;;;;;;5159222;27;20046;-79
2022/09/05 10:05:21;;;;;;;3.55;2.30;;;27.10;94.30;;;;;;5158916;27;20034;-79
2022/09/05 10:08:09;;;;;;;10.65;2.60;;;27.10;93.90;;;;;;5105879;27;20051;-79
2022/09/05 10:11:07;;;;;;;5.30;2.45;;;27.20;94.20;;;;;;5159002;27;20108;-79
2022/09/05 10:13:52;;;;;;;7.50;2.50;;;27.20;94.20;;;;;;5158432;27;20046;-79
2022/09/05 10:16:36;;;;;;;6.65;2.55;;;27.30;93.40;;;;;;5158479;27;20055;-79
2022/09/05 10:19:46;;;;;;;5.38;2.30;;;27.30;93.70;;;;;;5158302;27;20083;-79
2022/09/05 10:22:35;;;;;;;3.78;2.42;;;27.50;93.60;;;;;;5113825;27;20059;-79
2022/09/05 10:25:21;;;;;;;4.50;2.28;;;27.50;93.30;;;;;;5158218;27;20058;-79
2022/09/05 10:28:06;;;;;;;7.57;2.67;;;27.60;93.50;;;;;;5139717;27;20049;-79
2022/09/05 10:31:11;;;;;;;6.43;2.33;;;27.70;92.80;;;;;;5158165;27;20046;-79
2022/09/05 10:33:42;;;;;;;4.80;2.60;;;27.80;92.90;;;;;;5135558;27;20134;-80
2022/09/05 10:36:23;;;;;;;4.82;2.30;;;27.90;92.80;;;;;;5157953;27;20129;-79
2022/09/05 10:38:59;;;;;;;3.53;2.10;;;27.80;92.60;;;;;;5139641;27;20051;-80
2022/09/05 10:41:38;;;;;;;3.22;2.00;;;27.80;92.70;;;;;;5157858;27;20073;-79
2022/09/05 10:44:05;;;;;;;4.53;2.60;;;27.90;92.30;;;;;;5158242;27;20038;-79
2022/09/05 10:46:56;;;;;;;2.95;1.70;;;27.90;91.90;;;;;;5157882;27;20050;-79
2022/09/05 10:49:26;;;;;;;4.03;2.10;;;27.90;91.70;;;;;;5138987;27;20040;-79
2022/09/05 10:52:34;;;;;;;2.50;1.70;;;28.10;91.90;;;;;;5157716;27;20049;-79
2022/09/05 10:55:29;;;;;;;2.30;1.55;;;28.20;91.50;;;;;;5140036;27;20367;-79
2022/09/05 10:58:02;;;;;;;3.72;2.17;;;28.40;91.30;;;;;;5139386;27;20169;-80
2022/09/05 11:00:32;;;;;;;3.30;2.00;;;28.40;91.00;;;;;;5157512;27;20086;-79
2022/09/05 11:03:00;;;;;;;4.28;1.90;;;28.50;91.10;;;;;;5157531;27;20127;-77
2022/09/05 11:05:35;;;;;;;3.25;1.70;;;28.50;91.00;;;;;;5157444;27;20053;-76
2022/09/05 11:08:25;;;;;;;4.40;1.90;;;28.60;91.20;;;;;;5139468;27;20081;-76
2022/09/05 11:11:00;;;;;;;2.67;1.67;;;28.70;90.80;;;;;;5139113;27;20103;-77
2022/09/05 11:13:48;;;;;;;5.85;1.88;;;28.80;90.30;;;;;;5157494;27;20058;-76
2022/09/05 11:16:37;;;;;;;3.53;1.73;;;28.80;90.20;;;;;;5157581;27;20038;-77
2022/09/05 11:19:28;;;;;;;3.90;1.80;;;28.90;90.00;;;;;;5157154;27;20138;-77
2022/09/05 11:22:03;;;;;;;3.67;1.77;;;29.00;90.30;;;;;;5138965;27;20050;-76
2022/09/05 11:24:34;;;;;;;3.17;1.88;;;29.10;90.20;;;;;;5156869;27;20237;-77
2022/09/05 11:27:20;;;;;;;3.40;1.38;;;29.20;90.00;;;;;;5138440;27;20521;-76
2022/09/05 11:30:00;;;;;;;2.67;1.80;;;29.20;88.60;;;;;;5156931;27;20051;-77
2022/09/05 11:32:37;;;;;;;4.63;1.33;;;29.20;89.00;;;;;;5157445;27;20446;-77
2022/09/05 11:35:21;;;;;;;6.80;1.80;;;29.20;88.80;;;;;;5156574;27;20542;-76
2022/09/05 11:37:49;;;;;;;2.35;1.50;;;29.30;87.50;;;;;;5156904;27;20042;-76
2022/09/05 11:40:44;;;;;;;3.45;1.45;;;29.30;87.20;;;;;;5156655;27;20061;-76
2022/09/05 11:43:34;;;;;;;5.28;1.70;;;29.40;88.40;;;;;;5157322;27;20073;-76
2022/09/05 11:46:11;;;;;;;2.25;1.58;;;29.50;87.00;;;;;;5121251;27;20051;-77
2022/09/05 11:49:05;;;;;;;3.63;1.60;;;29.40;87.90;;;;;;5138033;27;20082;-79
2022/09/05 11:51:52;;;;;;;2.97;1.60;;;29.60;87.20;;;;;;5156453;27;20043;-78
2022/09/05 11:54:25;;;;;;;8.57;2.00;;;29.50;88.10;;;;;;5138134;27;20490;-78
2022/09/05 11:57:18;;;;;;;7.68;1.70;;;29.50;88.50;;;;;;5137550;27;20047;-79
2022/09/05 12:00:06;;;;;;;6.57;1.95;;;29.60;89.40;;;;;;5155625;27;20066;-78
2022/09/05 12:02:52;;;;;;;5.15;1.77;;;29.70;88.30;;;;;;5156377;27;20394;-78
2022/09/05 12:05:50;;;;;;;2.25;1.50;;;29.90;87.90;;;;;;5156240;27;20038;-78
2022/09/05 12:08:56;;;;;;;2.97;1.50;;;29.90;86.70;;;;;;5138061;27;20043;-78
2022/09/05 12:11:54;;;;;;;3.78;1.60;;;30.00;86.30;;;;;;5156037;27;20154;-79
2022/09/05 12:14:32;;;;;;;3.45;1.80;;;30.10;85.40;;;;;;5138076;27;20059;-79
2022/09/05 12:17:03;;;;;;;3.35;1.40;;;30.10;85.70;;;;;;5155908;27;20562;-79
2022/09/05 12:19:39;;;;;;;2.17;1.48;;;30.10;85.30;;;;;;5156275;27;20051;-78
2022/09/05 12:22:26;;;;;;;3.10;1.70;;;30.10;85.10;;;;;;5155910;27;20385;-78
2022/09/05 12:25:12;;;;;;;3.65;1.70;;;30.00;84.30;;;;;;5137840;27;20049;-78
2022/09/05 12:27:38;;;;;;;4.75;1.45;;;29.80;85.40;;;;;;5156239;27;20359;-79
2022/09/05 12:30:10;;;;;;;5.70;1.95;;;29.90;85.00;;;;;;5155729;27;20046;-79
2022/09/05 12:32:57;;;;;;;2.13;1.70;;;30.00;84.60;;;;;;5155629;27;20046;-79
2022/09/05 12:35:44;;;;;;;3.03;1.67;;;30.00;84.30;;;;;;5120506;27;20139;-79
2022/09/05 12:38:54;;;;;;;4.57;1.67;;;29.80;83.90;;;;;;5155868;27;20121;-79
2022/09/05 12:41:24;;;;;;;3.53;1.80;;;29.70;84.80;;;;;;5150268;27;20047;-78
2022/09/05 12:44:01;;;;;;;4.72;1.65;;;29.80;84.70;;;;;;5155565;27;20086;-79
2022/09/05 12:46:46;;;;;;;2.40;1.50;;;29.90;84.00;;;;;;5155660;27;20043;-79
2022/09/05 12:49:22;;;;;;;4.43;1.80;;;30.10;83.80;;;;;;5155395;27;20038;-79
2022/09/05 12:52:02;;;;;;;4.05;1.67;;;30.20;83.60;;;;;;5155929;27;20452;-79
2022/09/05 12:54:34;;;;;;;3.33;1.73;;;30.40;83.60;;;;;;5137397;27;20150;-79
2022/09/05 12:57:27;;;;;;;1.92;1.48;;;30.50;82.60;;;;;;5155607;27;20038;-79
2022/09/05 13:00:01;;;;;;;3.20;1.60;;;30.60;82.30;;;;;;5155393;27;20047;-79
2022/09/05 13:02:33;;;;;;;3.63;1.63;;;30.70;82.60;;;;;;5155198;27;20103;-79
2022/09/05 13:05:12;;;;;;;2.42;1.75;;;30.70;82.70;;;;;;5155322;27;20130;-79
2022/09/05 13:07:57;;;;;;;3.05;1.52;;;30.80;82.70;;;;;;5155431;27;20417;-79
2022/09/05 13:10:38;;;;;;;3.97;1.83;;;30.90;82.30;;;;;;5137065;27;20039;-78
2022/09/05 13:13:10;;;;;;;2.22;1.50;;;31.00;82.70;;;;;;5159639;27;20107;-79
2022/09/05 13:15:40;;;;;;;2.88;1.40;;;31.20;82.70;;;;;;5159778;27;20099;-79
2022/09/05 13:18:19;;;;;;;2.13;1.50;;;31.30;81.00;;;;;;5159538;27;20038;-79
2022/09/05 13:20:54;;;;;;;3.72;1.40;;;31.20;80.80;;;;;;5159472;27;20086;-80
2022/09/05 13:23:43;;;;;;;3.25;1.30;;;31.30;79.80;;;;;;5140993;27;20042;-79
2022/09/05 13:26:18;;;;;;;2.03;1.40;;;31.30;80.10;;;;;;5141006;27;20039;-79
2022/09/05 13:28:51;;;;;;;2.28;1.30;;;31.30;80.90;;;;;;5159357;27;20035;-79
2022/09/05 13:31:40;;;;;;;4.45;1.63;;;31.20;81.30;;;;;;5159251;27;20042;-79
2022/09/05 13:34:11;;;;;;;2.50;1.40;;;31.00;81.00;;;;;;5109084;27;20146;-78
2022/09/05 13:36:55;;;;;;;3.50;1.70;;;30.70;81.00;;;;;;5159093;27;20047;-79
2022/09/05 13:39:27;;;;;;;2.75;1.30;;;30.70;82.00;;;;;;5159322;27;20424;-79
2022/09/05 13:42:02;;;;;;;2.05;1.30;;;30.60;81.90;;;;;;5160002;27;20137;-78
2022/09/05 13:44:31;;;;;;;2.20;1.40;;;30.60;81.30;;;;;;5159116;27;20095;-79
2022/09/05 13:47:27;;;;;;;2.60;1.10;;;30.80;81.30;;;;;;5141097;27;20043;-79
2022/09/05 13:50:24;;;;;;;3.25;1.45;;;30.80;81.50;;;;;;5130499;27;20053;-77
2022/09/05 13:53:08;;;;;;;1.85;1.33;;;30.90;81.70;;;;;;5158848;27;20482;-78
2022/09/05 13:55:43;;;;;;;2.83;1.40;;;31.00;81.70;;;;;;5158968;27;20035;-79
2022/09/05 13:58:38;;;;;;;2.80;1.35;;;31.10;79.80;;;;;;5159346;27;20043;-78
2022/09/05 14:01:50;;;;;;;3.03;1.40;;;31.10;79.60;;;;;;5159133;27;20039;-77
2022/09/05 14:04:37;;;;;;;2.72;1.30;;;31.20;81.10;;;;;;5148081;27;20106;-79
2022/09/05 14:07:25;;;;;;;3.85;1.27;;;31.10;80.70;;;;;;5159121;27;20069;-78
2022/09/05 14:10:44;;;;;;;3.65;1.30;;;31.10;80.60;;;;;;5158833;27;20054;-79
2022/09/05 14:13:30;;;;;;;4.55;1.25;;;31.00;79.80;;;;;;5137396;27;20070;-79